Fort Ringgold, Texas
Current Conditions -  °F | °C
As of 6:15 AM on Monday 20 Oct 2014 (Local Time) from KEBG Reporting Station
Broken Clouds Broken Clouds  
Wind Chill: 69°   Ceiling: 5500
Heat Index: 69°   Visibility: 10mi
Dew Point: 65°   Wind: 0mph
Humidity: 90%   Direction: NA
Pressure: 29.93"   Gusts: NA
Location:  26.5735°N, 98.695°W
Report Text: KEBG 201115Z AUTO 00000KT 10SM BKN055 20/19 A2993 RMK AO2 T02030186
Loading
Personal Weather Stations






























Interactive Weather Map
Tropical Storm Tracking
New forecast layout! Learn more

10-Day Weather Forecast

Advertisements
Track Severe Weather on mobile